This is the latest recevied weather packets stored in our database for station/object N9XTN-3. If no packets are shown the sender has not sent any weather packets the latest 10 day(s).
| Time | Temp. | Humidity | Pressure | Rain* | Wind** | Luminosity | Snow |
|---|---|---|---|---|---|---|---|
| 1777255217 | 17.78° C | 84% | 1004.3 hPa | 0 mm | - | - | - |
| 1777254937 | 17.78° C | 84% | 1004.4 hPa | 0 mm | - | - | - |
| 1777251937 | 18.89° C | 81% | 1004.2 hPa | 0 mm | - | - | - |
| 1777250717 | 18.89° C | 80% | 1004.1 hPa | 0 mm | - | - | - |
| 1777247417 | 19.44° C | 75% | 1004.3 hPa | 0 mm | - | - | - |
| 1777245917 | 20° C | 75% | 1004.1 hPa | 0 mm | - | - | - |
| 1777245617 | 20° C | 75% | 1004.2 hPa | 0 mm | - | - | - |
| 1777241437 | 18.89° C | 84% | 1004.6 hPa | 0 mm | - | - | - |
| 1777240517 | 18.33° C | 84% | 1004.8 hPa | 0 mm | - | - | - |
| 1777240217 | 18.33° C | 85% | 1004.9 hPa | 0 mm | - | - | - |
| 1777239017 | 18.33° C | 85% | 1005.4 hPa | 0 mm | - | - | - |
| 1777238417 | 17.78° C | 85% | 1005.5 hPa | 0 mm | - | - | - |
| 1777235737 | 18.33° C | 80% | 1006.9 hPa | 0 mm | - | - | - |
| 1777227037 | 16.11° C | 82% | 1008.8 hPa | 0 mm | - | - | - |
| 1777224617 | 15.56° C | 83% | 1009.7 hPa | 0 mm | - | - | - |
| 1777223117 | 15° C | 83% | 1010.2 hPa | 0 mm | - | - | - |
| 1777221317 | 13.89° C | 86% | 1010.6 hPa | 0 mm | - | - | - |
| 1777213817 | 10° C | 93% | 1011.6 hPa | 0 mm | - | - | - |
| 1777213517 | 9.44° C | 92% | 1011.5 hPa | 0 mm | - | - | - |
| 1777212617 | 8.89° C | 92% | 1011.7 hPa | 0 mm | - | - | - |
| 1777209617 | 7.22° C | 94% | 1011.9 hPa | 0 mm | - | - | - |
| 1777208137 | 7.22° C | 94% | 1012.3 hPa | 0 mm | - | - | - |
| 1777204817 | 6.67° C | 94% | 1012.1 hPa | 0 mm | - | - | - |
| 1777204537 | 6.67° C | 94% | 1012 hPa | 0 mm | - | - | - |
| 1777202717 | 7.22° C | 94% | 1012.3 hPa | 0 mm | - | - | - |
* Rain latest hour (hover to see other rain measurements)
** Current wind speed in m/s (hover to see current wind gust speed)